Current Weather

Nioro Du Sahel

Nioro Du Sahel, Mali (GANR)

Report from: Monday, May 23, 2022 6:00 AM GMT
Current time: Monday, May 23, 2022 8:17 AM GMT

Nearby weather
Weather history
Weather forecast

Temperature30.0°C (86.0°F)
Heat index31.0°C (87.7°F)
Dew point18.0°C (64.4°F)
Winds 2 kts (1 m/s, 2.3 mph) North-Northwest (340°)
Clouds Sky clear
Altimeter29.85 in.Hg (1011 mB)
Relative humidity49 %
Density altitude2,077 ft. (633 m)
Remarks Ceiling and visibility OK
Flight conditions Visual Meteorological Conditions
Raw dataGANR 230600Z 34002KT CAVOK 30/18 Q1011
An error has occurred. This application may no longer respond until reloaded. Reload 🗙